createdAt,value
2023-02-19T00:00:57.924Z,101526.09
2023-02-19T00:04:07.133Z,101523.47
2023-02-19T00:07:11.399Z,101527.81
2023-02-19T00:10:16.005Z,101521.78
2023-02-19T00:13:20.320Z,101524.38
2023-02-19T00:16:39.672Z,101523.56
2023-02-19T00:19:43.934Z,101526.09
2023-02-19T00:22:48.333Z,101535.69
2023-02-19T00:25:52.885Z,101532.22
2023-02-19T00:28:58.558Z,101533.09
2023-02-19T00:32:03.059Z,101539.16
2023-02-19T00:35:07.370Z,101542.63
2023-02-19T00:38:11.730Z,101548.72
2023-02-19T00:41:20.968Z,101534.84
2023-02-19T00:44:25.204Z,101534.84
2023-02-19T00:47:29.992Z,101539.22
2023-02-19T00:50:34.357Z,101543.56
2023-02-19T00:53:38.766Z,101546.19
2023-02-19T00:56:43.193Z,101546.16
2023-02-19T00:59:47.307Z,101536.66
2023-02-19T01:02:51.995Z,101547.97
2023-02-19T01:05:56.418Z,101540.28
2023-02-19T01:09:00.687Z,101540.28
2023-02-19T01:12:08.128Z,101542.03
2023-02-19T01:15:12.084Z,101540.28
2023-02-19T01:18:16.429Z,101539.44
2023-02-19T01:21:25.784Z,101536.88
2023-02-19T01:24:30.479Z,101534.28
2023-02-19T01:27:34.907Z,101541.19
2023-02-19T01:30:40.096Z,101531.63
2023-02-19T01:33:50.239Z,101535.06
2023-02-19T01:36:54.441Z,101536.84
2023-02-19T01:39:59.043Z,101533.38
2023-02-19T01:43:03.741Z,101531.63
2023-02-19T01:46:07.921Z,101528.06
2023-02-19T01:49:37.888Z,101524.63
2023-02-19T01:52:42.412Z,101528.13
2023-02-19T01:55:49.437Z,101525.50
2023-02-19T01:58:54.418Z,101509.91
2023-02-19T02:02:00.138Z,101512.53
2023-02-19T02:05:07.742Z,101511.72
2023-02-19T02:08:32.872Z,101506.59
2023-02-19T02:11:38.500Z,101504.88
2023-02-19T02:14:47.609Z,101504.06
2023-02-19T02:18:06.118Z,101495.41
2023-02-19T02:21:56.401Z,101483.31
2023-02-19T02:25:54.141Z,101476.41
2023-02-19T02:29:20.837Z,101487.63
2023-02-19T02:32:43.648Z,101479.09
2023-02-19T02:36:01.600Z,101474.84
2023-02-19T02:39:11.633Z,101473.97
2023-02-19T02:42:28.089Z,101479.16
2023-02-19T02:45:37.582Z,101467.81
2023-02-19T02:48:42.605Z,101459.25
2023-02-19T02:51:52.621Z,101447.91
2023-02-19T02:55:03.078Z,101449.66
2023-02-19T02:58:09.184Z,101455.72
2023-02-19T03:02:04.065Z,101454.09
2023-02-19T03:05:42.728Z,101453.31
2023-02-19T03:09:07.832Z,101454.25
2023-02-19T03:12:36.160Z,101453.50
2023-02-19T03:16:16.394Z,101462.97
2023-02-19T03:19:24.869Z,101449.16
2023-02-19T03:22:34.568Z,101456.09
2023-02-19T03:26:13.167Z,101465.56
2023-02-19T03:29:23.648Z,101457.81
2023-02-19T03:32:34.591Z,101465.63
2023-02-19T03:35:47.359Z,101459.59
2023-02-19T03:39:06.972Z,101456.13
2023-02-19T03:42:56.348Z,101460.53
2023-02-19T03:46:16.286Z,101459.63
2023-02-19T03:50:02.374Z,101457.94
2023-02-19T03:53:30.959Z,101462.31
2023-02-19T03:57:01.509Z,101463.19
2023-02-19T04:00:11.038Z,101465.81
2023-02-19T04:03:31.373Z,101473.69
2023-02-19T04:06:38.100Z,101470.22
2023-02-19T04:09:46.970Z,101484.91
2023-02-19T04:13:00.380Z,101489.28
2023-02-19T04:16:11.775Z,101494.50
2023-02-19T04:19:21.172Z,101506.63
2023-02-19T04:22:26.471Z,101509.19
2023-02-19T04:25:32.863Z,101506.63
2023-02-19T04:28:38.960Z,101509.25
2023-02-19T04:31:43.420Z,101508.41
2023-02-19T04:34:47.741Z,101504.09
2023-02-19T04:37:52.189Z,101509.31
2023-02-19T04:40:56.538Z,101504.97
2023-02-19T04:44:00.706Z,101507.59
2023-02-19T04:47:05.128Z,101501.53
2023-02-19T04:50:09.980Z,101512.72
2023-02-19T04:53:14.302Z,101519.66
2023-02-19T04:56:18.822Z,101521.38
2023-02-19T04:59:23.205Z,101525.69
2023-02-19T05:02:27.517Z,101536.88
2023-02-19T05:05:31.947Z,101544.63
2023-02-19T05:08:36.903Z,101544.66
2023-02-19T05:11:40.988Z,101555.91
2023-02-19T05:14:45.228Z,101554.19
2023-02-19T05:17:49.356Z,101564.56
2023-02-19T05:20:54.623Z,101571.50
2023-02-19T05:23:58.797Z,101574.09
2023-02-19T05:27:02.972Z,101588.78
2023-02-19T05:30:08.170Z,101593.13
2023-02-19T05:33:13.740Z,101600.03
2023-02-19T05:36:20.575Z,101597.47
2023-02-19T05:39:24.791Z,101612.19
2023-02-19T05:42:29.256Z,101608.75
2023-02-19T05:45:34.456Z,101613.94
2023-02-19T05:48:38.473Z,101625.16
2023-02-19T05:51:42.870Z,101633.81
2023-02-19T05:54:47.457Z,101632.94
2023-02-19T05:57:52.111Z,101634.69
2023-02-19T06:00:57.245Z,101639.88
2023-02-19T06:04:02.085Z,101643.34
2023-02-19T06:07:06.247Z,101659.75
2023-02-19T06:10:12.381Z,101667.53
2023-02-19T06:13:17.861Z,101674.47
2023-02-19T06:16:22.678Z,101679.63
2023-02-19T06:19:26.853Z,101685.69
2023-02-19T06:22:30.976Z,101687.41
2023-02-19T06:25:35.039Z,101692.59
2023-02-19T06:28:41.097Z,101704.69
2023-02-19T06:31:46.012Z,101701.22
2023-02-19T06:34:50.710Z,101703.81
2023-02-19T06:37:55.209Z,101709.84
2023-02-19T06:41:05.868Z,101710.75
2023-02-19T06:44:10.316Z,101726.28
2023-02-19T06:47:14.660Z,101731.47
2023-02-19T06:50:18.979Z,101728.88
2023-02-19T06:53:24.531Z,101732.34
2023-02-19T06:56:35.924Z,101748.72
2023-02-19T06:59:40.060Z,101754.81
2023-02-19T07:02:44.725Z,101761.69
2023-02-19T07:05:49.597Z,101771.22
2023-02-19T07:08:56.466Z,101769.47
2023-02-19T07:12:00.755Z,101775.56
2023-02-19T07:15:05.598Z,101779.84
2023-02-19T07:18:10.564Z,101785.03
2023-02-19T07:21:16.690Z,101792.81
2023-02-19T07:24:21.649Z,101790.22
2023-02-19T07:27:26.417Z,101803.19
2023-02-19T07:30:30.926Z,101804.91
2023-02-19T07:33:35.834Z,101810.94
2023-02-19T07:36:40.176Z,101822.22
2023-02-19T07:39:44.438Z,101826.50
2023-02-19T07:42:48.685Z,101821.34
2023-02-19T07:45:53.950Z,101828.22
2023-02-19T07:48:59.446Z,101840.34
2023-02-19T07:52:03.970Z,101836.88
2023-02-19T07:55:08.404Z,101836.03
2023-02-19T07:58:12.718Z,101838.63
2023-02-19T08:01:40.837Z,101843.81
2023-02-19T08:04:47.347Z,101842.94
2023-02-19T08:07:51.985Z,101842.06
2023-02-19T08:11:19.999Z,101836.88
2023-02-19T08:14:26.721Z,101836.91
2023-02-19T08:17:31.225Z,101848.13
2023-02-19T08:20:35.926Z,101863.69
2023-02-19T08:23:40.689Z,101862.81
2023-02-19T08:26:45.235Z,101874.03
2023-02-19T08:29:49.285Z,101873.19
2023-02-19T08:32:54.449Z,101883.56
2023-02-19T08:36:04.688Z,101881.81
2023-02-19T08:39:09.129Z,101889.59
2023-02-19T08:42:13.546Z,101910.34
2023-02-19T08:45:18.873Z,101914.66
2023-02-19T08:48:23.454Z,101928.50
2023-02-19T08:51:27.894Z,101935.44
2023-02-19T08:54:32.204Z,101944.06
2023-02-19T08:57:40.092Z,101949.22
2023-02-19T09:00:44.428Z,101959.59
2023-02-19T09:03:48.901Z,101971.69
2023-02-19T09:06:53.236Z,101961.25
2023-02-19T09:09:58.530Z,101969.88
2023-02-19T09:13:02.747Z,101982.88
2023-02-19T09:16:07.565Z,101979.38
2023-02-19T09:19:12.096Z,101981.09
2023-02-19T09:22:16.706Z,101978.50
2023-02-19T09:25:20.889Z,101962.91
2023-02-19T09:28:25.965Z,101963.72
2023-02-19T09:31:30.609Z,101962.81
2023-02-19T09:34:35.223Z,101955.78
2023-02-19T09:37:39.469Z,101954.00
2023-02-19T09:40:43.966Z,101943.56
2023-02-19T09:43:48.134Z,101953.94
2023-02-19T09:46:53.831Z,101949.53
2023-02-19T09:50:07.662Z,101936.50
2023-02-19T09:53:20.448Z,101929.50
2023-02-19T09:56:27.508Z,101938.13
2023-02-19T09:59:41.331Z,101926.00
2023-02-19T10:02:50.565Z,101924.16
2023-02-19T10:05:56.469Z,101911.94
2023-02-19T10:09:26.832Z,101910.22
2023-02-19T10:12:32.351Z,101921.34
2023-02-19T10:15:46.537Z,101928.13
2023-02-19T10:18:51.191Z,101917.69
2023-02-19T10:21:56.745Z,101919.31
2023-02-19T10:25:01.793Z,101926.91
2023-02-19T10:28:14.968Z,101924.28
2023-02-19T10:31:25.271Z,101912.94
2023-02-19T10:34:29.802Z,101906.91
2023-02-19T10:37:35.209Z,101911.16
2023-02-19T10:40:46.294Z,101923.03
2023-02-19T10:44:13.584Z,101916.22
2023-02-19T10:47:23.502Z,101913.34
2023-02-19T10:50:33.010Z,101913.81
2023-02-19T10:53:45.856Z,101911.41
2023-02-19T10:56:50.514Z,101900.75
2023-02-19T10:59:58.674Z,101896.19
2023-02-19T11:03:22.531Z,101881.69
2023-02-19T11:06:27.961Z,101892.56
2023-02-19T11:09:39.604Z,101897.47
2023-02-19T11:12:49.339Z,101908.47
2023-02-19T11:15:55.786Z,101905.97
2023-02-19T11:19:00.390Z,101893.53
2023-02-19T11:22:34.399Z,101893.59
2023-02-19T11:25:50.052Z,101887.91
2023-02-19T11:29:12.717Z,101893.16
2023-02-19T11:32:20.551Z,101888.56
2023-02-19T11:35:25.699Z,101888.63
2023-02-19T11:38:30.361Z,101893.81
2023-02-19T11:42:02.000Z,101890.31
2023-02-19T11:45:21.071Z,101891.44
2023-02-19T11:48:46.696Z,101879.34
2023-02-19T11:52:06.399Z,101883.66
2023-02-19T11:55:22.694Z,101890.59
2023-02-19T11:58:51.693Z,101897.84
2023-02-19T12:02:05.062Z,101889.72
2023-02-19T12:05:23.621Z,101892.09
2023-02-19T12:08:53.978Z,101899.81
2023-02-19T12:12:28.999Z,101885.97
2023-02-19T12:16:14.888Z,101896.63
2023-02-19T12:19:44.398Z,101891.22
2023-02-19T12:23:24.274Z,101903.63
2023-02-19T12:27:15.288Z,101903.19
2023-02-19T12:30:40.343Z,101905.81
2023-02-19T12:34:07.203Z,101907.56
2023-02-19T12:37:26.677Z,101902.47
2023-02-19T12:41:00.170Z,101903.38
2023-02-19T12:44:40.579Z,101903.28
2023-02-19T12:48:02.143Z,101906.75
2023-02-19T12:51:28.151Z,101901.19
2023-02-19T12:54:44.003Z,101892.66
2023-02-19T12:57:48.747Z,101894.72
2023-02-19T13:00:59.076Z,101891.97
2023-02-19T13:04:41.607Z,101880.88
2023-02-19T13:08:10.350Z,101889.75
2023-02-19T13:11:45.349Z,101890.53
2023-02-19T13:14:54.802Z,101896.63
2023-02-19T13:18:02.619Z,101890.53
2023-02-19T13:21:07.913Z,101897.50
2023-02-19T13:24:33.678Z,101900.22
2023-02-19T13:28:44.070Z,101893.31
2023-02-19T13:32:18.105Z,101885.81
2023-02-19T13:36:06.096Z,101891.09
2023-02-19T13:42:35.796Z,101901.56
2023-02-19T13:45:42.191Z,101900.84
2023-02-19T13:48:46.935Z,101895.56
2023-02-19T13:51:57.328Z,101883.31
2023-02-19T13:55:42.361Z,101885.88
2023-02-19T13:58:54.917Z,101888.63
2023-02-19T14:02:00.606Z,101886.91
2023-02-19T14:05:10.675Z,101891.22
2023-02-19T14:08:50.022Z,101893.72
2023-02-19T14:12:10.353Z,101891.97
2023-02-19T14:15:52.980Z,101874.41
2023-02-19T14:18:57.702Z,101872.91
2023-02-19T14:22:01.991Z,101874.06
2023-02-19T14:25:19.015Z,101871.53
2023-02-19T14:28:35.579Z,101863.59
2023-02-19T14:31:44.391Z,101864.44
2023-02-19T14:34:50.062Z,101862.78
2023-02-19T14:37:56.127Z,101857.72
2023-02-19T14:41:01.782Z,101852.72
2023-02-19T14:44:15.956Z,101862.44
2023-02-19T14:47:26.791Z,101868.56
2023-02-19T14:50:32.264Z,101863.44
2023-02-19T14:53:43.805Z,101867.00
2023-02-19T14:56:52.893Z,101873.94
2023-02-19T15:00:00.694Z,101875.66
2023-02-19T15:03:07.083Z,101870.56
2023-02-19T15:06:19.440Z,101872.34
2023-02-19T15:09:37.261Z,101865.47
2023-02-19T15:13:05.298Z,101881.22
2023-02-19T15:16:09.748Z,101896.88
2023-02-19T15:19:17.117Z,101884.72
2023-02-19T15:22:25.755Z,101877.84
2023-02-19T15:25:38.654Z,101898.72
2023-02-19T15:28:43.473Z,101917.88
2023-02-19T15:31:53.225Z,101920.44
2023-02-19T15:35:02.062Z,101923.09
2023-02-19T15:38:12.592Z,101935.31
2023-02-19T15:41:23.465Z,101942.41
2023-02-19T15:44:33.971Z,101956.25
2023-02-19T15:47:45.811Z,101943.28
2023-02-19T15:51:08.120Z,101951.19
2023-02-19T15:54:26.993Z,101951.19
2023-02-19T15:57:40.724Z,101944.25
2023-02-19T16:00:51.575Z,101959.91
2023-02-19T16:03:57.109Z,101970.38
2023-02-19T16:07:03.727Z,101972.19
2023-02-19T16:10:24.472Z,101980.03
2023-02-19T16:13:33.154Z,101983.59
2023-02-19T16:16:42.028Z,101988.81
2023-02-19T16:20:00.491Z,101987.13
2023-02-19T16:23:20.726Z,101979.31
2023-02-19T16:26:26.208Z,101984.56
2023-02-19T16:29:33.221Z,101990.69
2023-02-19T16:32:37.385Z,101995.94
2023-02-19T16:35:42.040Z,102002.94
2023-02-19T16:39:22.635Z,102016.00
2023-02-19T16:42:27.295Z,102013.41
2023-02-19T16:45:32.066Z,102021.22
2023-02-19T16:48:36.560Z,102022.16
2023-02-19T16:51:41.257Z,102019.59
2023-02-19T16:54:47.116Z,102023.94
2023-02-19T16:57:51.530Z,102023.94
2023-02-19T17:00:56.565Z,102032.66
2023-02-19T17:04:11.035Z,102025.75
2023-02-19T17:07:18.450Z,102024.84
2023-02-19T17:10:26.530Z,102021.41
2023-02-19T17:13:31.277Z,102024.00
2023-02-19T17:16:39.902Z,102035.28
2023-02-19T17:19:44.721Z,102035.28
2023-02-19T17:22:49.082Z,102042.25
2023-02-19T17:25:53.704Z,102042.25
2023-02-19T17:29:04.994Z,102046.63
2023-02-19T17:32:09.385Z,102049.22
2023-02-19T17:35:14.133Z,102055.28
2023-02-19T17:38:18.473Z,102077.03
2023-02-19T17:41:22.888Z,102074.44
2023-02-19T17:44:27.019Z,102063.13
2023-02-19T17:47:31.226Z,102073.59
2023-02-19T17:50:36.155Z,102076.16
2023-02-19T17:53:40.758Z,102073.63
2023-02-19T17:56:46.999Z,102078.75
2023-02-19T17:59:52.540Z,102066.69
2023-02-19T18:02:57.072Z,102064.91
2023-02-19T18:06:01.623Z,102071.88
2023-02-19T18:09:05.883Z,102081.41
2023-02-19T18:12:10.035Z,102070.13
2023-02-19T18:15:25.286Z,102071.84
2023-02-19T18:18:30.452Z,102060.59
2023-02-19T18:21:34.478Z,102060.53
2023-02-19T18:24:48.744Z,102046.69
2023-02-19T18:27:53.657Z,102031.06
2023-02-19T18:30:58.026Z,102033.66
2023-02-19T18:34:02.874Z,102027.59
2023-02-19T18:37:07.409Z,102016.28
2023-02-19T18:40:12.436Z,102016.28
2023-02-19T18:43:16.968Z,102018.03
2023-02-19T18:46:21.620Z,102012.00
2023-02-19T18:49:29.527Z,102014.63
2023-02-19T18:52:34.203Z,102018.06
2023-02-19T18:55:38.324Z,102023.28
2023-02-19T18:58:42.642Z,102017.19
2023-02-19T19:01:46.937Z,102012.88
2023-02-19T19:04:54.153Z,102010.25
2023-02-19T19:08:01.861Z,102003.34
2023-02-19T19:11:06.754Z,101999.00
2023-02-19T19:14:11.108Z,101995.59
2023-02-19T19:17:16.486Z,101989.53
2023-02-19T19:20:23.293Z,101989.56
2023-02-19T19:23:27.483Z,101993.03
2023-02-19T19:26:32.133Z,101997.38
2023-02-19T19:29:36.507Z,101996.53
2023-02-19T19:32:40.802Z,101996.56
2023-02-19T19:35:45.580Z,102002.63
2023-02-19T19:38:50.017Z,102004.41
2023-02-19T19:41:55.619Z,102000.09
2023-02-19T19:45:03.267Z,102009.63
2023-02-19T19:48:08.450Z,102014.88
2023-02-19T19:51:14.487Z,102017.44
2023-02-19T19:54:19.105Z,102012.22
2023-02-19T19:57:23.421Z,102006.19
2023-02-19T20:00:27.804Z,102003.56
2023-02-19T20:03:33.794Z,101996.59
2023-02-19T20:06:38.212Z,101991.41
2023-02-19T20:09:45.975Z,101985.34
2023-02-19T20:12:50.527Z,101988.81
2023-02-19T20:15:55.120Z,102001.78
2023-02-19T20:19:00.208Z,101995.75
2023-02-19T20:22:06.299Z,101989.63
2023-02-19T20:25:11.326Z,101983.59
2023-02-19T20:28:15.787Z,101992.31
2023-02-19T20:31:20.899Z,101997.50
2023-02-19T20:34:26.448Z,101986.25
2023-02-19T20:37:31.196Z,101982.78
2023-02-19T20:40:36.174Z,101976.69
2023-02-19T20:43:40.719Z,101981.06
2023-02-19T20:46:48.979Z,101985.38
2023-02-19T20:49:53.662Z,101989.69
2023-02-19T20:52:58.209Z,101979.28
2023-02-19T20:56:02.874Z,101977.56
2023-02-19T20:59:07.225Z,101976.69
2023-02-19T21:02:20.097Z,101985.34
2023-02-19T21:05:24.600Z,101981.00
2023-02-19T21:08:28.975Z,101976.69
2023-02-19T21:11:33.835Z,101979.31
2023-02-19T21:14:38.568Z,101976.72
2023-02-19T21:17:45.974Z,101975.81
2023-02-19T21:20:50.305Z,101973.22
2023-02-19T21:23:56.682Z,101980.16
2023-02-19T21:27:01.204Z,101974.97
2023-02-19T21:30:06.932Z,101965.38
2023-02-19T21:33:11.478Z,101950.66
2023-02-19T21:36:17.937Z,101944.56
2023-02-19T21:39:27.547Z,101951.50
2023-02-19T21:42:31.813Z,101943.72
2023-02-19T21:45:36.171Z,101946.31
2023-02-19T21:48:40.493Z,101940.28
2023-02-19T21:51:47.880Z,101931.56
2023-02-19T21:54:52.171Z,101926.38
2023-02-19T21:57:56.435Z,101933.31
2023-02-19T22:01:00.781Z,101941.09
2023-02-19T22:04:12.987Z,101933.31
2023-02-19T22:07:17.898Z,101934.16
2023-02-19T22:10:22.277Z,101928.09
2023-02-19T22:13:26.487Z,101922.88
2023-02-19T22:16:31.300Z,101928.06
2023-02-19T22:19:36.063Z,101914.19
2023-02-19T22:22:40.852Z,101912.47
2023-02-19T22:25:45.368Z,101906.34
2023-02-19T22:28:49.672Z,101912.41
2023-02-19T22:31:54.411Z,101910.69
2023-02-19T22:34:59.029Z,101897.72
2023-02-19T22:38:03.754Z,101911.56
2023-02-19T22:41:08.232Z,101914.16
2023-02-19T22:44:12.872Z,101902.91
2023-02-19T22:47:19.211Z,101908.94
2023-02-19T22:50:23.918Z,101895.09
2023-02-19T22:53:28.279Z,101902.91
2023-02-19T22:56:32.742Z,101901.19
2023-02-19T22:59:37.175Z,101891.66
2023-02-19T23:02:41.550Z,101889.03
2023-02-19T23:05:46.417Z,101889.91
2023-02-19T23:08:52.332Z,101886.44
2023-02-19T23:12:07.091Z,101882.09
2023-02-19T23:15:11.883Z,101879.50
2023-02-19T23:18:15.892Z,101876.00
2023-02-19T23:21:21.528Z,101862.13
2023-02-19T23:24:26.056Z,101865.59
2023-02-19T23:27:30.359Z,101843.91
2023-02-19T23:30:34.999Z,101823.94
2023-02-19T23:33:40.098Z,101818.72
2023-02-19T23:36:48.315Z,101821.31
2023-02-19T23:39:52.331Z,101821.28
2023-02-19T23:42:56.897Z,101803.91
2023-02-19T23:46:01.864Z,101794.38
2023-02-19T23:49:06.580Z,101796.09
2023-02-19T23:52:10.843Z,101777.00
2023-02-19T23:55:15.175Z,101771.81
2023-02-19T23:58:19.395Z,101769.22
